Racecast

Taven Beuke

Legacy (CO) · 12 · GRANITE PEAKSCO D5A5A · Compare head to head

Athlete rating 122.4 2024 TF season
Best race 123.0 TF
Races 52
Seasons 5 2020 — 2024

RankedNation #11473·CO #327·CO D5A #180·GRANITE PEAKS #51·Team #9 ?

Speed rating — all races

Cross Country

XC speed rating

2023 XC 116.4

Legacy (CO) · Grade 12

Date Meet Event Result Place Rating Difficulty PR/SR Flags
2023-11-18 Coyote Run Golf Course at Leisure World 5000m 18:14.5 142nd · 4th on team 115.7 +0.029 ★CR CSR
2023-10-20 Northwest Open Space 5000m 19:33 77th · 8th on team 108.3 +0.020
2023-09-22 Northwest Open Space 5000m 18:04.2 30th · 2nd on team 116.0 +0.020 CSR
2023-09-15 Stenger Complex 5000m 18:21.1 30th · 2nd on team 113.8 +0.038 ★CR CSR
2023-09-09 Waneka Lake Park 5000m 18:07.5 35th · 4th on team 118.5 +0.035 ★CR CSR
2023-09-01 Broomfield County Commons Park 5000m 18:11 18th · 1st on team 119.4 +0.053 ★CR CSR
2023-08-25 Adams County Regional Park 5000m 17:27.5 11th · 1st on team 122.8 +0.048 ★CR R SR CSR RSR
2023-08-19 Holy Family High School 3218m 11:36.5 15th · 1st on team 116.4 +0.073 ★PR ★CR SR CSR RSR

2022 XC 116.3

Legacy (CO) · Grade 11

Date Meet Event Result Place Rating Difficulty PR/SR Flags
2022-11-19 Coyote Run Golf Course at Leisure World 5000m 19:30.7 183rd · 5th on team 109.2 +0.029 CR CSR
2022-10-20 Northwest Open Space 5000m 18:43.9 56th · 4th on team 113.3 +0.020
2022-10-07 Northwest Open Space 5000m 17:13 57th · 2nd on team 120.9 +0.020 ★PR ★CR R SR CSR RSR
2022-09-30 North Lake Park 5000m 18:05 27th · 2nd on team 119.0 +0.041 ★CR CSR RSR
2022-09-24 Central Park Recreation Center 5000m 18:23.7 17th · 3rd on team 117.2 +0.043 ★CR CSR
2022-09-10 Heritage High School 5000m 17:18.2 35th · 2nd on team 116.4 -0.001 PR ★CR SR CSR
2022-09-02 Broomfield County Commons Park 5000m 18:22 17th · 2nd on team 118.2 +0.053 SR CSR RSR

2021 XC 115.9

Legacy (CO) · Grade 10

Date Meet Event Result Place Rating Difficulty PR/SR Flags
2021-10-21 Broomfield County Commons Park 5000m 18:17.5 44th · 6th on team 119.4 +0.053 PR CR R SR CSR RSR
2021-10-08 Spring Canyon Park 5000m 19:02 70th · 7th on team 113.7 +0.037 ★CR CSR
2021-09-21 Willis Case Golf Corse 5000m 19:37.8 31st · 5th on team 114.4 +0.086 ★CR CSR
2021-09-11 Heritage High School 5000m 18:21.4 81st · 5th on team 116.4 -0.001 PR CR SR CSR
2021-09-03 Broomfield County Commons Park 5000m 18:36 51st · 4th on team 117.2 +0.053 CR CSR
2021-08-28 Cherry Creek State Park 5000m 18:26.5 68th · 3rd on team 118.4 +0.033 PR ★CR R SR CSR RSR
2021-08-21 Legacy High School 5000m 18:51.2 19th · 3rd on team 111.6 +0.006 PR ★CR R SR CSR RSR

2020 XC 108.7

Legacy (CO) · Grade 9

Date Meet Event Result Place Rating Difficulty PR/SR Flags
2020-09-19 Legacy High School 5000m 19:02.8 8th · 6th on team 111.3 +0.006 PR CR R SR CSR RSR
2020-09-11 Legacy High School 5000m 19:10 3rd · 3rd on team 109.9 +0.006 PR CR SR CSR
2020-08-29 Legacy High School 5000m 20:37 9th · 9th on team 102.3 +0.006 CR CSR
2020-08-22 Broomfield County Commons Park 5000m 20:03.8 17th · 14th on team 111.2 +0.053 PR CR R SR CSR RSR

Track & Field

TF speed rating

2024 TF 119.8

Legacy (CO) · Grade 12

Date Meet Event Result Place Rating Difficulty PR/SR Flags
2024-05-10 HOKA St. Vrain Invitational 800m 2:05.55 72nd · 2nd on team 122.2 -0.015 ★PR SR
2024-05-03 Front Range League Championships 400m 54.88 36th · 4th on team -0.009 ★PR SR
2024-05-03 Front Range League Championships 800m 2:10.14 31st · 1st on team 119.0 -0.009
2024-04-04 Altitude Running Invitational 800m 2:05.69 14th · 1st on team 123.0 -0.009 PR ★R SR RSR
2024-03-29 Erie Tiger Twilight Invitational 400m 57.27 34th · 1st on team -0.001 SR
2024-03-29 Erie Tiger Twilight Invitational 1600m 4:54.58 17th · 1st on team 118.0 -0.001 ★PR SR RSR
2024-03-23 Broomfield Shootout 800m 2:11.75 46th · 1st on team 116.7 -0.012 SR RSR

2023 TF 114.5

Legacy (CO) · Grade 11

Date Meet Event Result Place Rating Difficulty PR/SR Flags
2023-04-28 Longmont Invitational 800m 2:08.93 20th · 1st on team 120.4 -0.015 PR SR RSR
2023-04-26 Adams 12 Five Star Championships 1600m 4:58.99 7th · 2nd on team 115.5 -0.006 PR SR
2023-04-15 Mountain Range Mustang Invitational 1600m 5:11.88 17th · 1st on team 110.6 -0.011
2023-04-08 Hawk Invitational 400m 55.18 28th · 3rd on team -0.006 PR SR
2023-04-08 Hawk Invitational 800m 2:10.05 20th · 2nd on team 119.1 -0.006 PR SR RSR
2023-04-05 ZOOMFIELD Grand Prix 1600m 5:10.48 7th · 2nd on team 112.0 -0.002
2023-03-15 Thornton Early Bird 1600m 5:07.97 13th · 2nd on team 112.4 -0.006 PR SR RSR
2023-02-18 Let's Get REAL Invitational Championship 1mile 5:14.57 55th · 15th on team 111.8 -0.009 ★PR SR RSR

2022 TF 115.6

Legacy (CO) · Grade 10

Date Meet Event Result Place Rating Difficulty PR/SR Flags
2022-05-06 Front Range League Championships 800m 2:10.81 30th · 3rd on team 119.6 -0.009 PR R SR RSR
2022-05-02 Foothills League/Longmont Invitational 800m 2:15.15 17th · 3rd on team 116.3 -0.007
2022-04-16 Mountain Range Mustang Invitational 800m 2:13.25 29th · 3rd on team 117.5 -0.006 PR SR RSR
2022-04-08 Holy Family Tiger Tornado 800m 2:17.72 13th · 4th on team 114.1 -0.002 PR SR RSR
2022-04-08 Holy Family Tiger Tornado 400m 57.59 19th · 3rd on team -0.002 PR SR
2022-03-26 Broomfield Shootout 1600m 5:13.91 53rd · 2nd on team 110.4 -0.012 PR SR RSR

2021 TF 106.3

Legacy (CO) · Grade 9

Date Meet Event Result Place Rating Difficulty PR/SR Flags
2021-06-15 Five Star JV Championships 1600m 5:27.89 2nd · 2nd on team 107.2 -0.006
2021-06-15 Five Star JV Championships 800m 2:26.75 1st · 1st on team 107.3 -0.006 PR SR
2021-06-02 Five Star Championships 3200m 12:43.09 7th · 4th on team 99.8 -0.006
2021-05-26 Norsemen Invitational 1600m 5:25.43 8th · 3rd on team 107.4 -0.006 PR SR
2021-05-22 Centaurus Twilight Meet 3200m 11:28.81 21st · 3rd on team 109.8 -0.012 ★PR SR RSR